Time;durP1;ratioP1;P1;durP2;ratioP2;P2;SDS_P1;SDS_P2;PMS_P1;PMS_P2;Temp;Humidity;BMP_temperature;BMP_pressure;BME280_temperature;BME280_humidity;BME280_pressure;Samples;Min_cycle;Max_cycle;Signal;HPM_P1;HPM_P2
2023/06/15 00:02:40;;;;;;;2.57;1.77;;;;;;;;;;5900631;28;10000483;-66
2023/06/15 00:05:41;;;;;;;3.08;2.15;;;;;;;;;;6248660;28;20028;-67
2023/06/15 00:08:41;;;;;;;3.50;1.90;;;;;;;;;;6250865;28;20593;-66
2023/06/15 00:11:41;;;;;;;2.23;1.90;;;;;;;;;;6254477;28;20082;-67
2023/06/15 00:14:41;;;;;;;1.93;1.60;;;;;;;;;;6253558;28;20087;-66
2023/06/15 00:17:42;;;;;;;1.83;1.70;;;;;;;;;;6254011;28;20016;-67
2023/06/15 00:20:42;;;;;;;1.73;1.63;;;;;;;;;;6249322;28;20028;-66
2023/06/15 00:23:44;;;;;;;2.73;2.07;;;;;;;;;;6253998;28;20045;-66
2023/06/15 00:26:44;;;;;;;1.95;1.77;;;;;;;;;;6255518;28;20025;-65
2023/06/15 00:29:45;;;;;;;1.70;1.60;;;;;;;;;;6252771;28;20465;-67
2023/06/15 00:32:45;;;;;;;2.30;2.10;;;;;;;;;;6256310;28;20446;-67
2023/06/15 00:35:45;;;;;;;2.53;2.13;;;;;;;;;;6253842;28;20021;-67
2023/06/15 00:38:45;;;;;;;3.60;2.20;;;;;;;;;;6255602;28;20055;-66
2023/06/15 00:41:46;;;;;;;4.73;2.03;;;;;;;;;;6251825;28;20017;-68
2023/06/15 00:44:46;;;;;;;1.97;1.60;;;;;;;;;;6248695;28;20043;-65
2023/06/15 00:47:46;;;;;;;3.07;1.90;;;;;;;;;;6262064;28;20057;-69
2023/06/15 00:50:47;;;;;;;4.33;2.23;;;;;;;;;;6264506;28;20356;-67
2023/06/15 00:53:47;;;;;;;2.23;1.77;;;;;;;;;;6267381;28;20067;-67
2023/06/15 00:56:48;;;;;;;1.93;1.73;;;;;;;;;;6266866;28;20040;-67
2023/06/15 00:59:48;;;;;;;3.78;2.00;;;;;;;;;;6265942;28;20025;-66
2023/06/15 01:02:50;;;;;;;2.53;2.20;;;;;;;;;;6265033;28;20033;-69
2023/06/15 01:05:52;;;;;;;2.40;2.20;;;;;;;;;;6256412;28;20046;-66
2023/06/15 01:08:53;;;;;;;2.45;2.10;;;;;;;;;;6256723;28;20466;-66
2023/06/15 01:11:55;;;;;;;4.32;2.22;;;;;;;;;;6247934;28;20028;-67
2023/06/15 01:14:55;;;;;;;4.13;2.17;;;;;;;;;;6250880;28;20029;-66
2023/06/15 01:17:57;;;;;;;2.43;1.83;;;;;;;;;;6255607;28;20509;-65
2023/06/15 01:21:01;;;;;;;2.45;1.90;;;;;;;;;;6250566;28;20025;-66
2023/06/15 01:24:05;;;;;;;2.63;2.05;;;;;;;;;;6256320;28;20060;-67
2023/06/15 01:27:09;;;;;;;2.03;1.83;;;;;;;;;;6248187;28;20508;-67
2023/06/15 01:30:09;;;;;;;2.15;1.95;;;;;;;;;;6249168;28;20013;-67
2023/06/15 01:33:10;;;;;;;2.50;1.73;;;;;;;;;;6251209;28;20063;-67
2023/06/15 01:36:11;;;;;;;2.55;2.13;;;;;;;;;;6253554;28;20033;-67
2023/06/15 01:39:11;;;;;;;4.17;2.00;;;;;;;;;;6250675;28;20541;-68
2023/06/15 01:42:11;;;;;;;3.07;2.10;;;;;;;;;;6247339;28;20032;-67
2023/06/15 01:45:13;;;;;;;3.13;2.10;;;;;;;;;;6246022;28;20476;-66
2023/06/15 01:48:13;;;;;;;4.22;2.13;;;;;;;;;;6250506;28;20040;-66
2023/06/15 01:51:15;;;;;;;2.20;1.97;;;;;;;;;;6257643;28;20028;-66
2023/06/15 01:54:15;;;;;;;3.15;2.05;;;;;;;;;;6249371;28;20033;-65
2023/06/15 01:57:18;;;;;;;3.43;2.23;;;;;;;;;;6252666;28;20024;-66
2023/06/15 02:00:20;;;;;;;2.28;1.88;;;;;;;;;;6251218;28;20133;-66
2023/06/15 02:03:20;;;;;;;2.70;2.03;;;;;;;;;;5906702;28;10000005;-65
2023/06/15 02:06:20;;;;;;;2.50;2.10;;;;;;;;;;6255195;28;20050;-65
2023/06/15 02:09:21;;;;;;;2.20;1.80;;;;;;;;;;6259439;28;20014;-66
2023/06/15 02:12:21;;;;;;;2.30;2.00;;;;;;;;;;6250584;28;20474;-66
2023/06/15 02:15:21;;;;;;;2.33;2.13;;;;;;;;;;6254618;28;20029;-67
2023/06/15 02:18:22;;;;;;;2.37;2.17;;;;;;;;;;6251799;28;20197;-67
2023/06/15 02:21:22;;;;;;;3.67;2.25;;;;;;;;;;6251521;28;20240;-65
2023/06/15 02:24:23;;;;;;;1.93;1.73;;;;;;;;;;6253686;28;20083;-66
2023/06/15 02:27:23;;;;;;;2.73;2.03;;;;;;;;;;6262824;28;20025;-67
2023/06/15 02:30:26;;;;;;;2.33;2.00;;;;;;;;;;6261410;28;20104;-67
2023/06/15 02:33:27;;;;;;;2.72;2.00;;;;;;;;;;6256507;28;20021;-67
2023/06/15 02:36:28;;;;;;;2.57;2.20;;;;;;;;;;6252687;28;20032;-67
2023/06/15 02:39:28;;;;;;;2.70;1.90;;;;;;;;;;6253017;28;20304;-66
2023/06/15 02:42:29;;;;;;;3.07;1.90;;;;;;;;;;6255523;28;20035;-66
2023/06/15 02:45:29;;;;;;;2.37;2.13;;;;;;;;;;6254975;28;20025;-67
2023/06/15 02:48:29;;;;;;;2.07;1.87;;;;;;;;;;6262219;28;20020;-66
2023/06/15 02:51:31;;;;;;;2.10;1.90;;;;;;;;;;6263056;28;20026;-68
2023/06/15 02:54:31;;;;;;;2.35;1.88;;;;;;;;;;6260950;28;20026;-68
2023/06/15 02:57:32;;;;;;;2.53;1.90;;;;;;;;;;6261888;28;20052;-67
2023/06/15 03:00:32;;;;;;;2.93;2.00;;;;;;;;;;6254691;28;20495;-65
2023/06/15 03:03:33;;;;;;;2.28;2.03;;;;;;;;;;6253402;28;20605;-67
2023/06/15 03:06:34;;;;;;;2.40;1.90;;;;;;;;;;6255837;28;20033;-67
2023/06/15 03:09:35;;;;;;;3.28;1.98;;;;;;;;;;6250408;28;20431;-66
2023/06/15 03:12:35;;;;;;;2.57;2.10;;;;;;;;;;6257810;28;20021;-67
2023/06/15 03:15:35;;;;;;;2.43;1.87;;;;;;;;;;6256842;28;20125;-68
2023/06/15 03:18:35;;;;;;;2.13;1.90;;;;;;;;;;6253089;28;20033;-66
2023/06/15 03:21:37;;;;;;;2.50;2.03;;;;;;;;;;6255807;28;20025;-66
2023/06/15 03:24:39;;;;;;;2.90;2.15;;;;;;;;;;6257933;28;20025;-67
2023/06/15 03:27:40;;;;;;;3.67;2.28;;;;;;;;;;6260776;28;20486;-64
2023/06/15 03:30:41;;;;;;;2.40;2.20;;;;;;;;;;6255751;28;20071;-64
2023/06/15 03:33:42;;;;;;;2.28;2.00;;;;;;;;;;6243967;28;20108;-65
2023/06/15 03:36:43;;;;;;;2.67;2.20;;;;;;;;;;6258379;28;20699;-66
2023/06/15 03:39:43;;;;;;;4.18;2.70;;;;;;;;;;6250908;28;20067;-66
2023/06/15 03:42:44;;;;;;;2.90;2.53;;;;;;;;;;6258097;28;20033;-66
2023/06/15 03:45:44;;;;;;;5.63;2.80;;;;;;;;;;6239875;28;20021;-66
2023/06/15 03:48:45;;;;;;;3.07;2.27;;;;;;;;;;6240302;28;20021;-65
2023/06/15 03:51:45;;;;;;;2.88;1.92;;;;;;;;;;6240506;28;20409;-66
2023/06/15 03:54:45;;;;;;;3.27;2.27;;;;;;;;;;6253079;28;20553;-67
2023/06/15 03:57:47;;;;;;;2.13;1.77;;;;;;;;;;6252959;28;20275;-66
2023/06/15 04:00:47;;;;;;;1.98;1.75;;;;;;;;;;6250521;28;20025;-66
2023/06/15 04:03:47;;;;;;;2.40;2.20;;;;;;;;;;6250879;28;20048;-67
2023/06/15 04:06:47;;;;;;;3.40;2.43;;;;;;;;;;6251600;28;20017;-69
2023/06/15 04:09:48;;;;;;;5.07;2.80;;;;;;;;;;6250208;28;20024;-66
2023/06/15 04:12:48;;;;;;;4.70;2.28;;;;;;;;;;6247385;28;20493;-67
2023/06/15 04:15:50;;;;;;;2.93;2.53;;;;;;;;;;6248722;28;20021;-67
2023/06/15 04:18:51;;;;;;;3.60;3.10;;;;;;;;;;6253149;28;20431;-67
2023/06/15 04:21:51;;;;;;;3.58;2.42;;;;;;;;;;6247479;28;20132;-67
2023/06/15 04:24:51;;;;;;;2.57;2.10;;;;;;;;;;6254547;28;20025;-67
2023/06/15 04:27:52;;;;;;;2.53;2.20;;;;;;;;;;6249935;28;20062;-67
2023/06/15 04:31:04;;;;;;;2.85;2.35;;;;;;;;;;6246726;28;20028;-67
2023/06/15 04:34:06;;;;;;;3.35;2.20;;;;;;;;;;6244720;28;20049;-65
2023/06/15 04:37:07;;;;;;;2.55;2.20;;;;;;;;;;6245847;28;20382;-67
2023/06/15 04:40:09;;;;;;;3.13;2.40;;;;;;;;;;6244401;28;20025;-66
2023/06/15 04:43:10;;;;;;;3.80;2.00;;;;;;;;;;6243972;28;20025;-67
2023/06/15 04:46:11;;;;;;;2.33;2.13;;;;;;;;;;6251094;28;20039;-67
2023/06/15 04:49:12;;;;;;;2.10;1.90;;;;;;;;;;6247703;28;20017;-67
2023/06/15 04:52:12;;;;;;;2.95;2.15;;;;;;;;;;6249614;28;20604;-67
2023/06/15 04:55:12;;;;;;;2.30;2.10;;;;;;;;;;6245758;28;20036;-67
2023/06/15 04:58:13;;;;;;;2.77;2.20;;;;;;;;;;6251881;28;20090;-68
2023/06/15 05:01:13;;;;;;;3.28;2.00;;;;;;;;;;6247453;28;20077;-67
2023/06/15 05:04:13;;;;;;;4.20;2.20;;;;;;;;;;6252749;28;20451;-67
2023/06/15 05:07:13;;;;;;;2.80;2.03;;;;;;;;;;6253797;28;20561;-66
2023/06/15 05:10:15;;;;;;;3.20;2.30;;;;;;;;;;6254183;28;20215;-67
2023/06/15 05:13:15;;;;;;;2.22;2.03;;;;;;;;;;6253078;28;20025;-67
2023/06/15 05:16:15;;;;;;;2.30;2.10;;;;;;;;;;6252228;28;20400;-66
2023/06/15 05:19:16;;;;;;;2.80;2.40;;;;;;;;;;6259564;28;20585;-66
2023/06/15 05:22:16;;;;;;;2.43;2.07;;;;;;;;;;6254207;28;20385;-70
2023/06/15 05:25:17;;;;;;;2.53;1.93;;;;;;;;;;6255741;28;20037;-65
2023/06/15 05:28:18;;;;;;;4.47;1.98;;;;;;;;;;6251799;28;20032;-67
2023/06/15 05:31:18;;;;;;;4.00;2.13;;;;;;;;;;6251148;28;20025;-66
2023/06/15 05:34:18;;;;;;;3.60;2.20;;;;;;;;;;6251587;28;20021;-68
2023/06/15 05:37:19;;;;;;;3.60;2.20;;;;;;;;;;6251424;28;20131;-67
2023/06/15 05:40:19;;;;;;;4.67;2.60;;;;;;;;;;6249923;28;20153;-67
2023/06/15 05:43:19;;;;;;;2.30;2.10;;;;;;;;;;6250520;28;20397;-68
2023/06/15 05:46:20;;;;;;;3.27;2.27;;;;;;;;;;6254538;28;20040;-67
2023/06/15 05:49:20;;;;;;;2.90;2.27;;;;;;;;;;6260914;28;20283;-70
2023/06/15 05:52:20;;;;;;;3.10;2.20;;;;;;;;;;6254756;28;20025;-69
2023/06/15 05:55:21;;;;;;;2.63;2.30;;;;;;;;;;6263434;28;20025;-66
2023/06/15 05:58:21;;;;;;;3.63;2.43;;;;;;;;;;6255450;28;20633;-60
2023/06/15 06:01:21;;;;;;;3.60;2.63;;;;;;;;;;6252822;28;20283;-67
2023/06/15 06:04:22;;;;;;;3.63;2.37;;;;;;;;;;6256198;28;20099;-66
2023/06/15 06:07:23;;;;;;;2.90;2.47;;;;;;;;;;6253414;28;20022;-66
2023/06/15 06:10:23;;;;;;;3.03;2.78;;;;;;;;;;6246571;28;20160;-66
2023/06/15 06:13:24;;;;;;;3.07;2.43;;;;;;;;;;6246419;28;20520;-66
2023/06/15 06:16:24;;;;;;;2.77;2.47;;;;;;;;;;6250529;28;20324;-64
2023/06/15 06:19:25;;;;;;;3.30;3.00;;;;;;;;;;6246049;28;20036;-63
2023/06/15 06:22:25;;;;;;;3.30;3.00;;;;;;;;;;6253835;28;20123;-68
2023/06/15 06:25:25;;;;;;;5.57;3.03;;;;;;;;;;6247186;28;20029;-66
2023/06/15 06:28:26;;;;;;;4.67;3.03;;;;;;;;;;6244959;28;20287;-68
2023/06/15 06:31:28;;;;;;;3.58;2.55;;;;;;;;;;6249743;28;20604;-69
2023/06/15 06:34:28;;;;;;;4.13;2.28;;;;;;;;;;6254967;28;20447;-70
2023/06/15 06:37:28;;;;;;;3.27;2.57;;;;;;;;;;6250390;28;20055;-66
2023/06/15 06:40:29;;;;;;;2.93;2.63;;;;;;;;;;6258980;28;20029;-68
2023/06/15 06:43:30;;;;;;;3.60;2.70;;;;;;;;;;6256819;28;20594;-69
2023/06/15 06:46:30;;;;;;;;;;;;;;;;;;6254852;28;20025;-70
2023/06/15 06:49:30;;;;;;;2.95;2.30;;;;;;;;;;6254262;28;19919;-67
2023/06/15 06:52:30;;;;;;;5.20;3.00;;;;;;;;;;6256139;28;20099;-66
2023/06/15 06:55:31;;;;;;;;;;;;;;;;;;6254402;28;20180;-67
2023/06/15 06:58:31;;;;;;;3.33;2.60;;;;;;;;;;6249418;28;20008;-67
2023/06/15 07:01:31;;;;;;;;;;;;;;;;;;6245066;28;20025;-72
2023/06/15 07:04:32;;;;;;;3.55;2.55;;;;;;;;;;6248363;28;20003;-70
2023/06/15 07:07:32;;;;;;;;;;;;;;;;;;6253033;28;20029;-66
2023/06/15 07:10:32;;;;;;;2.70;2.50;;;;;;;;;;6247410;28;20622;-68
2023/06/15 07:13:32;;;;;;;;;;;;;;;;;;6251353;28;20028;-67
2023/06/15 07:16:32;;;;;;;2.92;2.72;;;;;;;;;;6245639;28;19959;-67
2023/06/15 07:19:32;;;;;;;;;;;;;;;;;;6245909;28;20466;-71
2023/06/15 07:22:33;;;;;;;4.00;2.72;;;;;;;;;;6246325;28;19908;-70
2023/06/15 07:25:34;;;;;;;;;;;;;;;;;;6252467;28;20029;-71
2023/06/15 07:28:34;;;;;;;2.63;2.43;;;;;;;;;;6251032;28;20066;-71
2023/06/15 07:31:34;;;;;;;3.08;2.70;;;;;;;;;;6248345;28;20438;-70
2023/06/15 07:34:34;;;;;;;4.63;2.87;;;;;;;;;;6253593;28;20028;-71
2023/06/15 07:37:35;;;;;;;;;;;;;;;;;;6249067;28;20338;-72
2023/06/15 07:40:35;;;;;;;2.80;2.50;;;;;;;;;;6250629;28;19912;-71
2023/06/15 07:43:35;;;;;;;3.03;2.70;;;;;;;;;;6250752;28;20029;-72
2023/06/15 07:46:35;;;;;;;3.67;2.78;;;;;;;;;;6256238;28;20040;-67
2023/06/15 07:49:36;;;;;;;2.83;2.63;;;;;;;;;;6254114;28;20124;-67
2023/06/15 07:52:36;;;;;;;3.22;2.92;;;;;;;;;;6246624;28;20894;-72
2023/06/15 07:55:36;;;;;;;5.25;3.35;;;;;;;;;;6245865;28;20021;-69
2023/06/15 07:58:38;;;;;;;4.37;2.67;;;;;;;;;;6248061;28;20037;-69
2023/06/15 08:01:38;;;;;;;3.40;2.70;;;;;;;;;;6243213;28;20625;-70
2023/06/15 08:04:39;;;;;;;2.50;2.30;;;;;;;;;;6250817;28;20043;-70
2023/06/15 08:07:39;;;;;;;2.95;2.65;;;;;;;;;;6247300;28;20302;-71
2023/06/15 08:10:40;;;;;;;4.03;2.90;;;;;;;;;;6244836;28;20350;-72
2023/06/15 08:13:40;;;;;;;3.03;2.80;;;;;;;;;;6240279;28;20026;-72
2023/06/15 08:16:40;;;;;;;3.23;2.93;;;;;;;;;;6246976;28;20267;-71
2023/06/15 08:19:40;;;;;;;2.97;2.67;;;;;;;;;;6247278;28;20333;-72
2023/06/15 08:22:41;;;;;;;4.80;2.77;;;;;;;;;;6248515;28;20271;-72
2023/06/15 08:25:42;;;;;;;3.45;2.88;;;;;;;;;;6248098;28;20271;-71
2023/06/15 08:28:42;;;;;;;3.28;2.97;;;;;;;;;;6247932;28;20138;-69
2023/06/15 08:31:42;;;;;;;3.70;2.70;;;;;;;;;;5901384;28;10000049;-69
2023/06/15 08:34:43;;;;;;;2.93;2.63;;;;;;;;;;6247771;28;20338;-70
2023/06/15 08:37:43;;;;;;;2.85;2.58;;;;;;;;;;6277572;28;20299;-72
2023/06/15 08:40:45;;;;;;;3.47;2.70;;;;;;;;;;6265601;28;20543;-71
2023/06/15 08:43:46;;;;;;;4.88;2.95;;;;;;;;;;6256259;28;20784;-71
2023/06/15 08:46:47;;;;;;;3.63;2.88;;;;;;;;;;6248681;28;20175;-71
2023/06/15 08:49:47;;;;;;;3.28;2.65;;;;;;;;;;6248623;28;20021;-70
2023/06/15 08:52:48;;;;;;;3.17;2.88;;;;;;;;;;6257209;28;20486;-67
2023/06/15 08:55:48;;;;;;;3.25;2.95;;;;;;;;;;6247104;28;20055;-71
2023/06/15 08:58:52;;;;;;;3.17;2.88;;;;;;;;;;6259735;28;20021;-70
2023/06/15 09:01:54;;;;;;;3.00;2.70;;;;;;;;;;6247749;28;20025;-70
2023/06/15 09:04:54;;;;;;;3.70;3.00;;;;;;;;;;6254224;28;20024;-71
2023/06/15 09:07:54;;;;;;;3.53;2.85;;;;;;;;;;6257297;28;20059;-72
2023/06/15 09:11:08;;;;;;;3.03;2.72;;;;;;;;;;6266939;28;20127;-71
2023/06/15 09:14:11;;;;;;;3.25;2.88;;;;;;;;;;6269952;28;20087;-70
2023/06/15 09:17:12;;;;;;;2.92;2.60;;;;;;;;;;6257163;28;20108;-71
2023/06/15 09:20:14;;;;;;;3.25;2.75;;;;;;;;;;6255668;28;20018;-69
2023/06/15 09:23:14;;;;;;;2.72;2.53;;;;;;;;;;6254703;28;20029;-70
2023/06/15 09:26:22;;;;;;;3.13;2.25;;;;;;;;;;6258155;28;20029;-71
2023/06/15 09:29:22;;;;;;;3.30;3.00;;;;;;;;;;6265099;28;20301;-70
2023/06/15 09:32:27;;;;;;;3.90;2.93;;;;;;;;;;6270942;28;20096;-70
2023/06/15 09:35:27;;;;;;;3.00;2.80;;;;;;;;;;6265375;28;20036;-69
2023/06/15 09:38:32;;;;;;;3.33;3.03;;;;;;;;;;6255252;28;20048;-71
2023/06/15 09:41:33;;;;;;;3.42;2.88;;;;;;;;;;6247941;28;20323;-68
2023/06/15 09:44:34;;;;;;;3.30;3.00;;;;;;;;;;6253141;28;20382;-70
2023/06/15 09:47:34;;;;;;;3.15;2.80;;;;;;;;;;6251811;28;20025;-73
2023/06/15 09:50:34;;;;;;;3.78;3.25;;;;;;;;;;6250414;28;20113;-74
2023/06/15 09:53:37;;;;;;;2.80;2.60;;;;;;;;;;6245510;28;20212;-69
2023/06/15 09:56:38;;;;;;;3.67;3.00;;;;;;;;;;6246957;28;20266;-72
2023/06/15 09:59:38;;;;;;;2.67;2.47;;;;;;;;;;6251916;28;20413;-72
2023/06/15 10:02:39;;;;;;;3.78;2.60;;;;;;;;;;6246797;28;20153;-71
2023/06/15 10:05:40;;;;;;;3.75;2.97;;;;;;;;;;6256035;28;20029;-70
2023/06/15 10:08:41;;;;;;;3.05;2.63;;;;;;;;;;6250125;28;20025;-71
2023/06/15 10:11:43;;;;;;;3.50;2.90;;;;;;;;;;6248917;28;20391;-71
2023/06/15 10:14:59;;;;;;;2.70;2.50;;;;;;;;;;6255033;28;20043;-70
2023/06/15 10:18:02;;;;;;;2.78;2.58;;;;;;;;;;6253142;28;20024;-71
2023/06/15 10:21:04;;;;;;;2.55;2.35;;;;;;;;;;6258223;28;20017;-73
2023/06/15 10:24:09;;;;;;;3.83;2.90;;;;;;;;;;6261780;28;20049;-72
2023/06/15 10:27:10;;;;;;;2.88;2.60;;;;;;;;;;6255945;28;20021;-71
2023/06/15 10:30:10;;;;;;;2.75;2.55;;;;;;;;;;6251874;28;20033;-70
2023/06/15 10:33:27;;;;;;;3.35;2.47;;;;;;;;;;6248899;28;20510;-70
2023/06/15 10:36:29;;;;;;;2.47;2.28;;;;;;;;;;6246950;28;20112;-72
2023/06/15 10:39:34;;;;;;;3.22;2.50;;;;;;;;;;6239988;28;20047;-73
2023/06/15 10:42:43;;;;;;;2.95;2.75;;;;;;;;;;6265318;28;20542;-74
2023/06/15 10:45:44;;;;;;;3.10;2.80;;;;;;;;;;6250418;28;22554;-74
2023/06/15 10:48:44;;;;;;;3.33;3.03;;;;;;;;;;6246915;28;20024;-73
2023/06/15 10:51:50;;;;;;;3.05;2.85;;;;;;;;;;6251702;28;20574;-72
2023/06/15 10:54:51;;;;;;;3.17;2.88;;;;;;;;;;6248014;28;20342;-70
2023/06/15 10:58:10;;;;;;;3.23;3.00;;;;;;;;;;6248911;28;20325;-70
2023/06/15 11:01:10;;;;;;;;;;;;;;;;;;6249256;28;20051;-71
2023/06/15 11:04:31;;;;;;;2.50;2.30;;;;;;;;;;6248146;28;20386;-70
2023/06/15 11:07:39;;;;;;;4.03;2.83;;;;;;;;;;6248494;28;20119;-69
2023/06/15 11:10:42;;;;;;;2.70;2.50;;;;;;;;;;6244182;28;20043;-69
2023/06/15 11:14:02;;;;;;;3.20;2.90;;;;;;;;;;6261569;28;20017;-69
2023/06/15 11:17:04;;;;;;;3.17;2.97;;;;;;;;;;6251629;28;20584;-71
2023/06/15 11:20:08;;;;;;;3.00;2.80;;;;;;;;;;6251084;28;20508;-68
2023/06/15 11:23:14;;;;;;;2.75;2.55;;;;;;;;;;6246651;28;20017;-70
2023/06/15 11:26:14;;;;;;;2.97;2.78;;;;;;;;;;6247281;28;20104;-68
2023/06/15 11:29:21;;;;;;;2.60;2.40;;;;;;;;;;6246624;28;20102;-68
2023/06/15 11:32:26;;;;;;;3.45;2.88;;;;;;;;;;6248410;28;20036;-71
2023/06/15 11:35:26;;;;;;;2.83;2.63;;;;;;;;;;6248401;28;20020;-69
2023/06/15 11:38:26;;;;;;;2.47;2.33;;;;;;;;;;6247187;28;20032;-71
2023/06/15 11:41:27;;;;;;;2.83;2.63;;;;;;;;;;6246019;28;20033;-71
2023/06/15 11:44:27;;;;;;;2.70;2.50;;;;;;;;;;6242337;28;20029;-71
2023/06/15 11:47:27;;;;;;;2.83;2.37;;;;;;;;;;6242357;28;20025;-71
2023/06/15 11:50:28;;;;;;;2.53;2.30;;;;;;;;;;6248263;28;20478;-72
2023/06/15 11:53:28;;;;;;;2.33;2.13;;;;;;;;;;6246237;28;20029;-71
2023/06/15 11:56:28;;;;;;;2.70;2.50;;;;;;;;;;6249907;28;20111;-73
2023/06/15 11:59:29;;;;;;;2.67;2.47;;;;;;;;;;6249467;28;20716;-71
2023/06/15 12:02:29;;;;;;;2.90;2.37;;;;;;;;;;6251865;28;20288;-70
2023/06/15 12:05:29;;;;;;;2.67;2.47;;;;;;;;;;6243303;28;20306;-70
2023/06/15 12:08:30;;;;;;;2.67;2.47;;;;;;;;;;6245823;28;20021;-70
2023/06/15 12:11:30;;;;;;;3.45;2.20;;;;;;;;;;6245602;28;20385;-70
2023/06/15 12:14:30;;;;;;;2.57;2.43;;;;;;;;;;6242941;28;20040;-72
2023/06/15 12:17:32;;;;;;;2.63;2.43;;;;;;;;;;6249116;28;20028;-70
2023/06/15 12:20:35;;;;;;;3.15;2.85;;;;;;;;;;6249409;28;20028;-72
2023/06/15 12:23:35;;;;;;;2.78;2.58;;;;;;;;;;6252432;28;20513;-70
2023/06/15 12:26:35;;;;;;;2.67;2.47;;;;;;;;;;6246870;28;20045;-70
2023/06/15 12:29:36;;;;;;;2.80;2.60;;;;;;;;;;6250391;28;20028;-70
2023/06/15 12:32:41;;;;;;;3.13;2.93;;;;;;;;;;6252537;28;20390;-71
2023/06/15 12:35:42;;;;;;;3.28;2.78;;;;;;;;;;6262587;28;20573;-72
2023/06/15 12:38:46;;;;;;;2.85;2.75;;;;;;;;;;6268505;28;20018;-71
2023/06/15 12:41:46;;;;;;;2.85;2.65;;;;;;;;;;6257135;28;20112;-72
2023/06/15 12:44:46;;;;;;;3.20;3.00;;;;;;;;;;6264847;28;20035;-71
2023/06/15 12:47:46;;;;;;;3.07;2.87;;;;;;;;;;6248503;28;20288;-73
2023/06/15 12:50:47;;;;;;;3.27;3.07;;;;;;;;;;6253427;28;20126;-69
2023/06/15 12:53:47;;;;;;;3.08;2.88;;;;;;;;;;6252527;28;20187;-69
2023/06/15 12:56:47;;;;;;;3.17;2.97;;;;;;;;;;6244817;28;20032;-69
2023/06/15 12:59:47;;;;;;;3.17;2.97;;;;;;;;;;6252045;28;20021;-71
2023/06/15 13:02:48;;;;;;;3.30;3.10;;;;;;;;;;6254009;28;20469;-70
2023/06/15 13:05:48;;;;;;;3.50;3.30;;;;;;;;;;6249474;28;20104;-71
2023/06/15 13:08:48;;;;;;;2.87;2.67;;;;;;;;;;6249574;28;20026;-70
2023/06/15 13:11:48;;;;;;;2.80;2.60;;;;;;;;;;6248916;28;20024;-72
2023/06/15 13:14:49;;;;;;;2.57;2.47;;;;;;;;;;6253187;28;20027;-71
2023/06/15 13:17:49;;;;;;;3.33;3.13;;;;;;;;;;6245382;28;20032;-70
2023/06/15 13:20:50;;;;;;;2.45;2.25;;;;;;;;;;6245979;28;20025;-71
2023/06/15 13:23:50;;;;;;;2.77;2.57;;;;;;;;;;6256999;28;20060;-71
2023/06/15 13:26:50;;;;;;;2.60;2.40;;;;;;;;;;6248378;28;20017;-70
2023/06/15 13:29:50;;;;;;;2.70;2.50;;;;;;;;;;6250003;28;20040;-70
2023/06/15 13:32:51;;;;;;;2.80;2.70;;;;;;;;;;6255671;28;20021;-70
2023/06/15 13:35:54;;;;;;;3.00;2.80;;;;;;;;;;6252880;28;20517;-70
2023/06/15 13:38:54;;;;;;;3.17;2.97;;;;;;;;;;6256900;28;20082;-67
2023/06/15 13:41:55;;;;;;;3.40;3.20;;;;;;;;;;6257189;28;20080;-69
2023/06/15 13:44:55;;;;;;;3.13;2.90;;;;;;;;;;6254471;28;20021;-71
2023/06/15 13:47:56;;;;;;;3.40;3.20;;;;;;;;;;6250424;28;20044;-71
2023/06/15 13:50:56;;;;;;;3.20;3.00;;;;;;;;;;6245496;28;20025;-70
2023/06/15 13:53:57;;;;;;;3.20;3.00;;;;;;;;;;6256266;28;20025;-70
2023/06/15 13:56:57;;;;;;;3.33;3.13;;;;;;;;;;6249695;28;20021;-68
2023/06/15 13:59:57;;;;;;;3.00;2.80;;;;;;;;;;6255129;28;20057;-70
2023/06/15 14:03:04;;;;;;;3.17;2.97;;;;;;;;;;6251422;28;20014;-69
2023/06/15 14:06:04;;;;;;;3.10;3.00;;;;;;;;;;6251926;28;20047;-71
2023/06/15 14:09:04;;;;;;;3.17;2.93;;;;;;;;;;6257354;28;20124;-71
2023/06/15 14:12:05;;;;;;;3.17;2.97;;;;;;;;;;6256276;28;20120;-71
2023/06/15 14:15:09;;;;;;;3.50;3.33;;;;;;;;;;6249344;28;20121;-72
2023/06/15 14:18:09;;;;;;;3.30;3.10;;;;;;;;;;6245895;28;20488;-71
2023/06/15 14:21:09;;;;;;;3.30;3.13;;;;;;;;;;6249150;28;20035;-72
2023/06/15 14:24:10;;;;;;;3.58;3.38;;;;;;;;;;6245678;28;20029;-72
2023/06/15 14:27:11;;;;;;;3.53;3.33;;;;;;;;;;6254579;28;20052;-72
2023/06/15 14:30:12;;;;;;;4.13;3.92;;;;;;;;;;6255778;28;20419;-72
2023/06/15 14:33:12;;;;;;;3.60;3.40;;;;;;;;;;6248509;28;20008;-73
2023/06/15 14:36:12;;;;;;;3.93;3.63;;;;;;;;;;6251049;28;20035;-72
2023/06/15 14:39:13;;;;;;;3.20;3.00;;;;;;;;;;6246292;28;20519;-70
2023/06/15 14:42:16;;;;;;;2.65;2.55;;;;;;;;;;6248071;28;20087;-72
2023/06/15 14:45:17;;;;;;;2.80;2.60;;;;;;;;;;6247269;28;20232;-71
2023/06/15 14:48:17;;;;;;;3.47;3.28;;;;;;;;;;6251204;28;20033;-70
2023/06/15 14:51:18;;;;;;;3.33;3.13;;;;;;;;;;6251044;28;20024;-70
2023/06/15 14:54:20;;;;;;;3.20;3.00;;;;;;;;;;6241314;28;20053;-71
2023/06/15 14:57:20;;;;;;;3.50;2.73;;;;;;;;;;6247825;28;20494;-70
2023/06/15 15:00:20;;;;;;;3.10;2.90;;;;;;;;;;6243113;28;20271;-69
2023/06/15 15:03:20;;;;;;;3.00;2.80;;;;;;;;;;6251312;28;20077;-69
2023/06/15 15:06:21;;;;;;;2.87;2.67;;;;;;;;;;6248903;28;20757;-69
2023/06/15 15:09:21;;;;;;;2.97;2.67;;;;;;;;;;6252224;28;20037;-70
2023/06/15 15:12:21;;;;;;;2.63;2.47;;;;;;;;;;6249803;28;20031;-69
2023/06/15 15:15:22;;;;;;;3.13;2.93;;;;;;;;;;6262386;28;20389;-70
2023/06/15 15:18:22;;;;;;;2.50;2.40;;;;;;;;;;6254039;28;20170;-71
2023/06/15 15:21:23;;;;;;;2.73;2.53;;;;;;;;;;6253800;28;20052;-70
2023/06/15 15:24:23;;;;;;;2.80;2.60;;;;;;;;;;6247616;28;20017;-70
2023/06/15 15:27:24;;;;;;;2.53;2.33;;;;;;;;;;6247819;28;20400;-70
2023/06/15 15:30:24;;;;;;;2.65;2.45;;;;;;;;;;6254684;28;20028;-69
2023/06/15 15:33:24;;;;;;;2.67;2.47;;;;;;;;;;6246147;28;20449;-69
2023/06/15 15:36:26;;;;;;;2.30;2.10;;;;;;;;;;6249276;28;20556;-70
2023/06/15 15:39:27;;;;;;;2.63;2.42;;;;;;;;;;6241253;28;20634;-70
2023/06/15 15:42:27;;;;;;;2.10;2.00;;;;;;;;;;6244493;28;20013;-69
2023/06/15 15:45:28;;;;;;;2.10;2.00;;;;;;;;;;6243132;28;20020;-70
2023/06/15 15:48:29;;;;;;;2.40;2.20;;;;;;;;;;6242752;28;20104;-70
2023/06/15 15:51:29;;;;;;;2.40;2.20;;;;;;;;;;6247145;28;20036;-70
2023/06/15 15:54:29;;;;;;;2.17;1.90;;;;;;;;;;6257738;28;20521;-70
2023/06/15 15:57:29;;;;;;;2.53;2.33;;;;;;;;;;6246066;28;20451;-70
2023/06/15 16:00:30;;;;;;;2.45;2.25;;;;;;;;;;6249014;28;20032;-71
2023/06/15 16:03:30;;;;;;;3.30;2.43;;;;;;;;;;6246148;28;20482;-70
2023/06/15 16:06:30;;;;;;;3.83;2.28;;;;;;;;;;6241871;28;20310;-70
2023/06/15 16:09:31;;;;;;;2.63;1.80;;;;;;;;;;6243732;28;20533;-71
2023/06/15 16:12:31;;;;;;;2.30;2.10;;;;;;;;;;6245584;28;20048;-69
2023/06/15 16:15:31;;;;;;;2.55;2.08;;;;;;;;;;6260730;28;20021;-70
2023/06/15 16:18:32;;;;;;;2.40;2.20;;;;;;;;;;6246605;28;20033;-71
2023/06/15 16:21:32;;;;;;;2.47;2.27;;;;;;;;;;6249273;28;20421;-69
2023/06/15 16:24:32;;;;;;;2.80;2.30;;;;;;;;;;6247465;28;20272;-69
2023/06/15 16:27:33;;;;;;;2.40;2.20;;;;;;;;;;6248644;28;20041;-70
2023/06/15 16:30:34;;;;;;;4.57;2.30;;;;;;;;;;6243670;28;20055;-68
2023/06/15 16:33:34;;;;;;;2.40;2.20;;;;;;;;;;6248356;28;20021;-70
2023/06/15 16:36:35;;;;;;;2.43;2.20;;;;;;;;;;6247276;28;20075;-69
2023/06/15 16:39:47;;;;;;;2.22;2.03;;;;;;;;;;6246390;28;20030;-69
2023/06/15 16:42:47;;;;;;;4.03;1.92;;;;;;;;;;6244951;28;20104;-68
2023/06/15 16:45:47;;;;;;;2.60;2.30;;;;;;;;;;6248276;28;20020;-70
2023/06/15 16:48:47;;;;;;;4.23;2.47;;;;;;;;;;6243494;28;20026;-70
2023/06/15 16:51:48;;;;;;;2.95;2.35;;;;;;;;;;6246090;28;20787;-69
2023/06/15 16:54:49;;;;;;;2.30;2.10;;;;;;;;;;6246764;28;20037;-69
2023/06/15 16:57:50;;;;;;;2.40;2.20;;;;;;;;;;6240840;28;20283;-69
2023/06/15 17:00:50;;;;;;;2.58;2.35;;;;;;;;;;6249845;28;20449;-70
2023/06/15 17:03:50;;;;;;;2.77;2.57;;;;;;;;;;6247941;28;20028;-68
2023/06/15 17:06:53;;;;;;;4.10;2.60;;;;;;;;;;6249813;28;20028;-71
2023/06/15 17:09:54;;;;;;;3.50;2.60;;;;;;;;;;6255466;28;20623;-69
2023/06/15 17:12:54;;;;;;;4.20;2.42;;;;;;;;;;6244995;28;20052;-70
2023/06/15 17:15:54;;;;;;;2.67;2.47;;;;;;;;;;6247647;28;20215;-68
2023/06/15 17:18:55;;;;;;;2.60;2.40;;;;;;;;;;6246716;28;20132;-68
2023/06/15 17:21:55;;;;;;;3.40;2.20;;;;;;;;;;6251890;28;20160;-70
2023/06/15 17:24:55;;;;;;;2.38;2.17;;;;;;;;;;6256028;28;20029;-70
2023/06/15 17:27:55;;;;;;;2.57;2.37;;;;;;;;;;6249046;28;20028;-70
2023/06/15 17:30:56;;;;;;;3.17;2.50;;;;;;;;;;6251399;28;20272;-70
2023/06/15 17:33:56;;;;;;;2.80;2.50;;;;;;;;;;6250439;28;20362;-70
2023/06/15 17:36:57;;;;;;;2.65;2.45;;;;;;;;;;6246658;28;20427;-70
2023/06/15 17:39:57;;;;;;;2.67;2.47;;;;;;;;;;6259196;28;20070;-68
2023/06/15 17:42:57;;;;;;;2.57;2.07;;;;;;;;;;6256153;28;21250;-70
2023/06/15 17:45:57;;;;;;;3.28;2.60;;;;;;;;;;6270551;28;20124;-69
2023/06/15 17:48:57;;;;;;;2.50;2.30;;;;;;;;;;6250705;28;20433;-69
2023/06/15 17:51:58;;;;;;;4.32;2.53;;;;;;;;;;6242857;28;20282;-69
2023/06/15 17:54:58;;;;;;;3.53;2.35;;;;;;;;;;6251696;28;20025;-70
2023/06/15 17:57:58;;;;;;;2.65;2.40;;;;;;;;;;6255531;28;20048;-70
2023/06/15 18:01:00;;;;;;;2.87;2.60;;;;;;;;;;6249119;28;20025;-70
2023/06/15 18:04:01;;;;;;;3.47;2.38;;;;;;;;;;6253744;28;20098;-67
2023/06/15 18:07:04;;;;;;;3.88;2.58;;;;;;;;;;6250915;28;20016;-68
2023/06/15 18:10:04;;;;;;;2.88;2.58;;;;;;;;;;6244880;28;20032;-67